createdAt,value
2022-12-27T00:01:38.964Z,0.30
2022-12-27T00:04:07.127Z,0.30
2022-12-27T00:06:35.400Z,0.40
2022-12-27T00:09:06.886Z,0.50
2022-12-27T00:11:35.154Z,0.20
2022-12-27T00:14:05.553Z,0.30
2022-12-27T00:16:34.669Z,0.40
2022-12-27T00:19:04.424Z,0.30
2022-12-27T00:21:33.329Z,0.20
2022-12-27T00:24:01.864Z,0.30
2022-12-27T00:26:34.585Z,0.40
2022-12-27T00:29:03.314Z,0.30
2022-12-27T00:31:33.722Z,0.73
2022-12-27T00:34:05.621Z,0.60
2022-12-27T00:36:34.459Z,0.33
2022-12-27T00:39:03.383Z,0.40
2022-12-27T00:41:32.890Z,0.27
2022-12-27T00:44:01.001Z,0.27
2022-12-27T00:46:29.174Z,0.37
2022-12-27T00:48:58.559Z,0.40
2022-12-27T00:51:27.765Z,0.63
2022-12-27T00:53:57.026Z,0.30
2022-12-27T00:56:28.185Z,0.57
2022-12-27T00:59:00.345Z,0.30
2022-12-27T01:01:34.006Z,0.60
2022-12-27T01:04:03.251Z,0.30
2022-12-27T01:06:34.985Z,0.30
2022-12-27T01:09:05.196Z,0.70
2022-12-27T01:11:34.404Z,0.30
2022-12-27T01:14:06.666Z,0.33
2022-12-27T01:16:35.186Z,0.50
2022-12-27T01:19:03.498Z,0.40
2022-12-27T01:21:31.622Z,0.33
2022-12-27T01:24:00.367Z,0.37
2022-12-27T01:26:29.620Z,0.20
2022-12-27T01:28:57.802Z,0.37
2022-12-27T01:31:29.537Z,0.40
2022-12-27T01:34:00.382Z,0.50
2022-12-27T01:36:31.481Z,0.30
2022-12-27T01:39:01.280Z,0.60
2022-12-27T01:41:52.308Z,0.50
2022-12-27T01:44:50.837Z,0.40
2022-12-27T01:47:29.597Z,0.40
2022-12-27T01:50:21.746Z,0.70
2022-12-27T01:52:57.697Z,0.40
2022-12-27T01:55:34.838Z,0.50
2022-12-27T01:58:10.492Z,0.33
2022-12-27T02:00:40.851Z,0.50
2022-12-27T02:03:11.581Z,0.47
2022-12-27T02:05:41.730Z,0.57
2022-12-27T02:08:28.921Z,0.90
2022-12-27T02:10:59.455Z,0.30
2022-12-27T02:13:29.195Z,0.53
2022-12-27T02:15:57.274Z,0.47
2022-12-27T02:18:26.993Z,0.40
2022-12-27T02:21:38.340Z,0.40
2022-12-27T02:25:03.466Z,0.23
2022-12-27T02:28:03.811Z,0.27
2022-12-27T02:30:35.462Z,0.30
2022-12-27T02:33:12.397Z,0.37
2022-12-27T02:35:45.272Z,0.50
2022-12-27T02:38:20.597Z,0.50
2022-12-27T02:41:09.070Z,0.30
2022-12-27T02:43:54.781Z,0.40
2022-12-27T02:46:45.398Z,0.50
2022-12-27T02:49:46.597Z,0.50
2022-12-27T02:52:47.089Z,0.50
2022-12-27T02:55:30.869Z,0.40
2022-12-27T02:58:20.809Z,0.33
2022-12-27T03:01:22.535Z,0.50
2022-12-27T03:04:13.108Z,0.33
2022-12-27T03:07:13.671Z,0.50
2022-12-27T03:10:22.066Z,0.40
2022-12-27T03:13:26.238Z,0.47
2022-12-27T03:16:11.476Z,0.50
2022-12-27T03:19:11.217Z,0.60
2022-12-27T03:22:03.842Z,0.50
2022-12-27T03:24:54.891Z,0.67
2022-12-27T03:27:29.987Z,0.50
2022-12-27T03:30:21.153Z,0.40
2022-12-27T03:33:14.206Z,0.50
2022-12-27T03:36:05.003Z,0.50
2022-12-27T03:38:43.319Z,0.57
2022-12-27T03:41:34.885Z,0.50
2022-12-27T03:44:04.650Z,0.83
2022-12-27T03:46:35.156Z,0.57
2022-12-27T03:49:19.333Z,0.60
2022-12-27T03:51:55.820Z,0.57
2022-12-27T03:54:30.421Z,0.73
2022-12-27T03:57:05.962Z,0.60
2022-12-27T03:59:34.550Z,0.83
2022-12-27T04:02:03.545Z,0.40
2022-12-27T04:04:33.636Z,0.47
2022-12-27T04:07:03.903Z,0.63
2022-12-27T04:09:49.538Z,0.50
2022-12-27T04:12:38.600Z,0.60
2022-12-27T04:15:25.249Z,0.70
2022-12-27T04:18:11.044Z,1.00
2022-12-27T04:20:58.169Z,1.10
2022-12-27T04:23:45.469Z,2.37
2022-12-27T04:26:31.271Z,2.57
2022-12-27T04:29:17.217Z,1.30
2022-12-27T04:32:03.308Z,0.87
2022-12-27T04:34:43.996Z,0.77
2022-12-27T04:37:15.448Z,0.40
2022-12-27T04:40:09.057Z,0.40
2022-12-27T04:42:54.827Z,0.70
2022-12-27T04:45:40.762Z,0.60
2022-12-27T04:48:31.826Z,0.90
2022-12-27T04:51:18.292Z,0.63
2022-12-27T04:54:04.319Z,0.60
2022-12-27T04:56:33.833Z,0.47
2022-12-27T04:59:19.681Z,0.60
2022-12-27T05:02:06.062Z,0.50
2022-12-27T05:04:38.291Z,0.60
2022-12-27T05:07:24.204Z,0.40
2022-12-27T05:10:10.625Z,0.73
2022-12-27T05:12:57.585Z,3.57
2022-12-27T05:15:25.755Z,6.13
2022-12-27T05:17:53.864Z,7.80
2022-12-27T05:20:21.999Z,7.20
2022-12-27T05:23:08.018Z,5.83
2022-12-27T05:25:42.416Z,3.73
2022-12-27T05:28:13.819Z,2.37
2022-12-27T05:30:44.918Z,1.87
2022-12-27T05:33:13.219Z,1.13
2022-12-27T05:35:41.543Z,1.10
2022-12-27T05:38:11.224Z,0.70
2022-12-27T05:40:39.266Z,0.50
2022-12-27T05:43:07.364Z,0.70
2022-12-27T05:45:36.857Z,0.70
2022-12-27T05:48:05.936Z,0.70
2022-12-27T05:50:34.083Z,0.50
2022-12-27T05:53:11.694Z,0.40
2022-12-27T05:55:40.027Z,0.50
2022-12-27T05:58:08.434Z,0.30
2022-12-27T06:00:38.257Z,0.50
2022-12-27T06:03:06.607Z,0.60
2022-12-27T06:05:34.843Z,0.40
2022-12-27T06:08:03.113Z,0.80
2022-12-27T06:10:31.388Z,0.50
2022-12-27T06:13:02.280Z,0.70
2022-12-27T06:15:31.017Z,0.60
2022-12-27T06:18:03.492Z,0.63
2022-12-27T06:20:31.880Z,0.53
2022-12-27T06:23:01.121Z,0.63
2022-12-27T06:25:29.397Z,0.63
2022-12-27T06:27:57.493Z,0.60
2022-12-27T06:30:25.671Z,0.80
2022-12-27T06:32:53.805Z,0.70
2022-12-27T06:35:23.299Z,0.77
2022-12-27T06:37:51.428Z,0.60
2022-12-27T06:40:20.899Z,0.60
2022-12-27T06:42:49.044Z,0.60
2022-12-27T06:45:17.391Z,0.70
2022-12-27T06:47:45.456Z,0.47
2022-12-27T06:50:15.478Z,0.60
2022-12-27T06:52:44.906Z,0.87
2022-12-27T06:55:13.009Z,0.80
2022-12-27T06:57:41.198Z,0.60
2022-12-27T07:00:13.300Z,0.80
2022-12-27T07:02:41.927Z,0.70
2022-12-27T07:05:10.635Z,0.83
2022-12-27T07:07:38.752Z,0.63
2022-12-27T07:10:09.599Z,1.00
2022-12-27T07:12:38.394Z,0.70
2022-12-27T07:15:08.488Z,1.03
2022-12-27T07:17:37.435Z,0.53
2022-12-27T07:20:07.053Z,1.00
2022-12-27T07:22:35.296Z,0.80
2022-12-27T07:25:03.451Z,1.20
2022-12-27T07:27:36.778Z,0.60
2022-12-27T07:30:06.946Z,0.97
2022-12-27T07:32:35.118Z,1.20
2022-12-27T07:35:03.297Z,0.80
2022-12-27T07:37:31.393Z,1.13
2022-12-27T07:39:59.534Z,1.30
2022-12-27T07:42:29.567Z,1.43
2022-12-27T07:44:59.476Z,0.77
2022-12-27T07:47:28.170Z,0.80
2022-12-27T07:49:56.488Z,1.20
2022-12-27T07:52:24.615Z,0.87
2022-12-27T07:54:52.763Z,0.97
2022-12-27T07:57:20.971Z,1.00
2022-12-27T07:59:49.170Z,2.03
2022-12-27T08:02:18.690Z,10.83
2022-12-27T08:04:46.936Z,4.90
2022-12-27T08:07:17.957Z,1.40
2022-12-27T08:09:49.330Z,1.10
2022-12-27T08:12:17.541Z,1.47
2022-12-27T08:14:46.440Z,1.60
2022-12-27T08:17:21.260Z,1.60
2022-12-27T08:19:52.150Z,1.30
2022-12-27T08:22:20.352Z,1.67
2022-12-27T08:24:48.715Z,1.00
2022-12-27T08:27:23.041Z,1.00
2022-12-27T08:29:51.268Z,1.27
2022-12-27T08:32:20.793Z,1.10
2022-12-27T08:34:48.948Z,1.13
2022-12-27T08:37:17.209Z,1.30
2022-12-27T08:39:45.325Z,1.57
2022-12-27T08:42:14.786Z,1.40
2022-12-27T08:44:42.865Z,1.50
2022-12-27T08:47:11.045Z,0.97
2022-12-27T08:49:40.524Z,1.10
2022-12-27T08:52:08.767Z,2.67
2022-12-27T08:54:37.156Z,1.47
2022-12-27T08:57:05.355Z,2.03
2022-12-27T08:59:33.585Z,1.90
2022-12-27T09:02:01.775Z,1.30
2022-12-27T09:04:30.150Z,1.70
2022-12-27T09:06:59.723Z,1.80
2022-12-27T09:09:28.030Z,1.90
2022-12-27T09:11:57.276Z,1.97
2022-12-27T09:14:25.487Z,1.40
2022-12-27T09:16:53.571Z,1.50
2022-12-27T09:19:21.762Z,2.43
2022-12-27T09:21:49.889Z,1.50
2022-12-27T09:24:19.352Z,1.20
2022-12-27T09:26:47.500Z,2.10
2022-12-27T09:29:15.650Z,1.37
2022-12-27T09:31:43.828Z,1.03
2022-12-27T09:34:12.373Z,1.03
2022-12-27T09:36:41.832Z,1.87
2022-12-27T09:39:12.177Z,1.50
2022-12-27T09:44:52.931Z,1.90
2022-12-27T09:47:29.103Z,1.53
2022-12-27T09:50:04.094Z,1.03
2022-12-27T09:52:40.799Z,1.27
2022-12-27T09:55:18.774Z,1.27
2022-12-27T09:57:50.507Z,1.20
2022-12-27T10:00:35.145Z,1.20
2022-12-27T10:03:07.489Z,1.47
2022-12-27T10:05:38.372Z,1.50
2022-12-27T10:08:26.701Z,2.33
2022-12-27T10:11:03.520Z,1.83
2022-12-27T10:13:47.989Z,1.00
2022-12-27T10:16:28.973Z,1.40
2022-12-27T10:19:20.177Z,1.10
2022-12-27T10:22:06.632Z,1.57
2022-12-27T10:24:43.057Z,1.70
2022-12-27T10:27:15.732Z,1.03
2022-12-27T10:29:47.359Z,1.10
2022-12-27T10:32:17.646Z,1.63
2022-12-27T10:34:46.363Z,1.15
2022-12-27T10:37:16.745Z,1.20
2022-12-27T10:39:45.264Z,0.93
2022-12-27T10:42:34.048Z,1.10
2022-12-27T10:45:34.723Z,1.05
2022-12-27T10:48:18.977Z,1.03
2022-12-27T10:51:00.496Z,1.33
2022-12-27T10:53:34.235Z,1.42
2022-12-27T10:56:25.886Z,0.83
2022-12-27T10:58:59.027Z,1.40
2022-12-27T11:01:32.403Z,2.20
2022-12-27T11:04:20.719Z,1.23
2022-12-27T11:06:52.529Z,1.13
2022-12-27T11:09:31.475Z,1.50
2022-12-27T11:12:20.590Z,1.63
2022-12-27T11:14:58.181Z,0.85
2022-12-27T11:17:37.281Z,1.10
2022-12-27T11:20:21.327Z,4.10
2022-12-27T11:22:55.389Z,1.67
2022-12-27T11:25:24.689Z,3.50
2022-12-27T11:27:57.075Z,6.28
2022-12-27T11:30:29.776Z,1.88
2022-12-27T11:33:05.907Z,1.00
2022-12-27T11:35:46.177Z,1.13
2022-12-27T11:38:25.423Z,2.45
2022-12-27T11:41:04.072Z,1.50
2022-12-27T11:43:41.999Z,0.90
2022-12-27T11:46:22.364Z,1.50
2022-12-27T11:48:58.295Z,0.80
2022-12-27T11:52:01.806Z,1.15
2022-12-27T11:55:20.740Z,1.23
2022-12-27T11:58:29.743Z,1.20
2022-12-27T12:01:08.710Z,0.75
2022-12-27T12:04:37.424Z,0.70
2022-12-27T12:07:22.417Z,1.20
2022-12-27T12:10:12.461Z,1.00
2022-12-27T12:13:46.781Z,1.00
2022-12-27T12:16:58.226Z,1.52
2022-12-27T12:19:47.815Z,0.50
2022-12-27T12:22:49.250Z,0.93
2022-12-27T12:25:58.149Z,1.05
2022-12-27T12:29:06.045Z,1.40
2022-12-27T12:31:55.709Z,1.75
2022-12-27T12:35:03.237Z,1.55
2022-12-27T12:37:59.483Z,1.08
2022-12-27T12:40:44.890Z,0.90
2022-12-27T12:43:36.243Z,0.90
2022-12-27T12:46:32.099Z,1.38
2022-12-27T12:49:31.622Z,1.30
2022-12-27T12:52:30.481Z,1.10
2022-12-27T12:55:23.913Z,1.00
2022-12-27T12:58:06.333Z,1.17
2022-12-27T13:01:08.842Z,1.25
2022-12-27T13:04:05.956Z,1.02
2022-12-27T13:07:13.281Z,5.13
2022-12-27T13:09:59.655Z,0.88
2022-12-27T13:12:48.976Z,1.05
2022-12-27T13:15:42.322Z,0.88
2022-12-27T13:18:30.359Z,1.55
2022-12-27T13:21:21.400Z,1.35
2022-12-27T13:24:08.381Z,0.75
2022-12-27T13:26:50.524Z,0.85
2022-12-27T13:29:41.323Z,0.93
2022-12-27T13:32:24.671Z,1.15
2022-12-27T13:35:19.937Z,1.60
2022-12-27T13:38:05.257Z,0.70
2022-12-27T13:40:57.721Z,1.25
2022-12-27T13:44:01.165Z,0.80
2022-12-27T13:46:54.597Z,1.15
2022-12-27T13:49:52.830Z,0.80
2022-12-27T13:52:52.203Z,1.30
2022-12-27T13:55:42.664Z,0.90
2022-12-27T13:58:53.525Z,0.70
2022-12-27T14:01:49.698Z,1.50
2022-12-27T14:04:46.715Z,1.42
2022-12-27T14:07:38.557Z,1.38
2022-12-27T14:10:28.703Z,1.27
2022-12-27T14:13:00.523Z,0.90
2022-12-27T14:16:15.206Z,1.05
2022-12-27T14:19:16.141Z,1.27
2022-12-27T14:22:16.985Z,1.17
2022-12-27T14:25:44.489Z,1.25
2022-12-27T14:29:00.023Z,0.90
2022-12-27T14:32:24.070Z,1.30
2022-12-27T14:35:34.887Z,1.40
2022-12-27T14:38:55.095Z,1.33
2022-12-27T14:42:05.379Z,1.55
2022-12-27T14:45:41.932Z,1.83
2022-12-27T14:48:53.690Z,1.50
2022-12-27T14:52:13.859Z,1.73
2022-12-27T14:55:30.216Z,1.05
2022-12-27T14:58:33.257Z,0.95
2022-12-27T15:01:13.531Z,1.10
2022-12-27T15:04:03.570Z,1.08
2022-12-27T15:07:22.652Z,1.65
2022-12-27T15:10:01.973Z,1.63
2022-12-27T15:12:46.913Z,1.15
2022-12-27T15:15:46.079Z,1.88
2022-12-27T15:18:39.804Z,2.07
2022-12-27T15:21:31.188Z,5.55
2022-12-27T15:24:14.254Z,4.47
2022-12-27T15:26:52.026Z,5.87
2022-12-27T15:29:48.744Z,11.07
2022-12-27T15:32:33.436Z,3.70
2022-12-27T15:35:39.950Z,4.60
2022-12-27T15:38:13.775Z,5.88
2022-12-27T15:41:29.369Z,7.78
2022-12-27T15:44:40.901Z,4.13
2022-12-27T15:47:58.470Z,3.17
2022-12-27T15:50:39.765Z,2.73
2022-12-27T15:53:31.760Z,2.90
2022-12-27T15:56:36.931Z,2.53
2022-12-27T15:59:46.628Z,2.90
2022-12-27T16:02:35.457Z,4.53
2022-12-27T16:05:14.335Z,4.37
2022-12-27T16:07:49.227Z,5.30
2022-12-27T16:10:50.770Z,8.63
2022-12-27T16:13:45.647Z,6.93
2022-12-27T16:16:57.285Z,4.90
2022-12-27T16:20:01.325Z,5.63
2022-12-27T16:22:37.597Z,5.60
2022-12-27T16:25:31.746Z,6.20
2022-12-27T16:28:08.045Z,5.00
2022-12-27T16:30:44.732Z,8.67
2022-12-27T16:33:37.407Z,7.93
2022-12-27T16:36:26.837Z,7.43
2022-12-27T16:39:32.396Z,5.47
2022-12-27T16:42:05.129Z,9.70
2022-12-27T16:44:55.364Z,9.40
2022-12-27T16:48:02.573Z,9.87
2022-12-27T16:50:57.919Z,11.03
2022-12-27T16:54:05.365Z,10.50
2022-12-27T16:56:36.822Z,11.27
2022-12-27T16:59:47.526Z,12.03
2022-12-27T17:02:39.234Z,13.30
2022-12-27T17:05:37.464Z,12.97
2022-12-27T17:08:20.760Z,12.07
2022-12-27T17:11:04.439Z,13.33
2022-12-27T17:13:42.075Z,12.67
2022-12-27T17:16:21.744Z,13.27
2022-12-27T17:18:57.868Z,12.53
2022-12-27T17:21:31.052Z,11.67
2022-12-27T17:24:05.965Z,11.83
2022-12-27T17:27:02.285Z,12.20
2022-12-27T17:30:01.573Z,11.13
2022-12-27T17:32:57.579Z,12.67
2022-12-27T17:35:39.067Z,14.03
2022-12-27T17:38:25.949Z,13.03
2022-12-27T17:41:15.707Z,10.67
2022-12-27T17:44:15.959Z,9.77
2022-12-27T17:46:55.505Z,10.67
2022-12-27T17:49:29.344Z,9.23
2022-12-27T17:52:22.961Z,11.93
2022-12-27T17:55:08.709Z,17.67
2022-12-27T17:57:54.222Z,15.27
2022-12-27T18:00:25.811Z,8.70
2022-12-27T18:02:57.177Z,8.03
2022-12-27T18:05:31.360Z,8.23
2022-12-27T18:08:08.098Z,8.03
2022-12-27T18:10:37.505Z,10.37
2022-12-27T18:13:07.970Z,10.43
2022-12-27T18:15:45.080Z,9.83
2022-12-27T18:18:21.402Z,10.63
2022-12-27T18:20:57.115Z,9.53
2022-12-27T18:23:28.021Z,8.53
2022-12-27T18:26:07.963Z,8.67
2022-12-27T18:28:38.470Z,6.97
2022-12-27T18:31:15.024Z,7.70
2022-12-27T18:33:47.294Z,8.80
2022-12-27T18:36:24.975Z,8.93
2022-12-27T18:39:00.500Z,7.30
2022-12-27T18:41:36.478Z,6.17
2022-12-27T18:44:10.978Z,6.13
2022-12-27T18:46:40.358Z,6.83
2022-12-27T18:49:08.628Z,9.03
2022-12-27T18:51:43.718Z,9.33
2022-12-27T18:54:33.264Z,9.70
2022-12-27T18:57:04.929Z,10.03
2022-12-27T18:59:36.072Z,10.33
2022-12-27T19:02:33.525Z,9.43
2022-12-27T19:05:24.656Z,9.30
2022-12-27T19:08:00.143Z,15.90
2022-12-27T19:10:33.442Z,13.23
2022-12-27T19:13:20.182Z,12.57
2022-12-27T19:15:49.001Z,10.70
2022-12-27T19:18:24.877Z,10.00
2022-12-27T19:20:58.288Z,10.30
2022-12-27T19:23:32.321Z,11.20
2022-12-27T19:26:26.752Z,10.30
2022-12-27T19:29:14.474Z,9.60
2022-12-27T19:31:52.162Z,11.20
2022-12-27T19:34:26.019Z,11.63
2022-12-27T19:36:56.239Z,13.00
2022-12-27T19:39:29.888Z,13.40
2022-12-27T19:42:03.315Z,17.47
2022-12-27T19:44:34.279Z,20.90
2022-12-27T19:47:02.426Z,20.77
2022-12-27T19:49:45.885Z,19.23
2022-12-27T19:52:20.527Z,17.10
2022-12-27T19:54:50.694Z,18.77
2022-12-27T19:57:22.140Z,16.57
2022-12-27T19:59:50.301Z,15.60
2022-12-27T20:02:20.760Z,14.63
2022-12-27T20:04:49.177Z,13.13
2022-12-27T20:07:23.641Z,11.73
2022-12-27T20:09:52.040Z,11.77
2022-12-27T20:12:21.561Z,12.00
2022-12-27T20:14:49.888Z,12.67
2022-12-27T20:17:18.103Z,12.23
2022-12-27T20:19:46.356Z,12.27
2022-12-27T20:22:14.667Z,12.13
2022-12-27T20:24:42.782Z,11.33
2022-12-27T20:27:10.925Z,11.33
2022-12-27T20:29:40.488Z,11.83
2022-12-27T20:32:08.747Z,10.83
2022-12-27T20:34:37.111Z,10.17
2022-12-27T20:37:05.353Z,10.60
2022-12-27T20:39:34.256Z,9.27
2022-12-27T20:42:02.604Z,10.13
2022-12-27T20:44:30.903Z,11.27
2022-12-27T20:47:00.460Z,9.63
2022-12-27T20:49:28.589Z,11.10
2022-12-27T20:51:56.882Z,11.80
2022-12-27T20:54:25.490Z,11.07
2022-12-27T20:56:53.584Z,11.40
2022-12-27T20:59:21.793Z,11.57
2022-12-27T21:01:54.881Z,11.50
2022-12-27T21:04:26.720Z,11.03
2022-12-27T21:06:54.956Z,12.23
2022-12-27T21:09:23.684Z,11.13
2022-12-27T21:11:53.652Z,11.07
2022-12-27T21:14:23.819Z,11.50
2022-12-27T21:16:52.149Z,11.60
2022-12-27T21:19:20.426Z,12.37
2022-12-27T21:21:49.999Z,12.13
2022-12-27T21:24:18.215Z,12.43
2022-12-27T21:26:46.846Z,12.00
2022-12-27T21:29:16.354Z,11.33
2022-12-27T21:31:44.791Z,11.00
2022-12-27T21:34:13.562Z,10.43
2022-12-27T21:36:41.698Z,9.67
2022-12-27T21:39:11.511Z,10.07
2022-12-27T21:41:41.472Z,10.83
2022-12-27T21:44:10.107Z,11.57
2022-12-27T21:46:42.141Z,10.87
2022-12-27T21:49:14.781Z,10.33
2022-12-27T21:51:44.659Z,9.87
2022-12-27T21:54:16.261Z,9.20
2022-12-27T21:56:44.629Z,8.00
2022-12-27T21:59:12.822Z,7.10
2022-12-27T22:01:50.152Z,7.27
2022-12-27T22:04:20.971Z,6.27
2022-12-27T22:06:49.404Z,6.27
2022-12-27T22:09:19.962Z,6.30
2022-12-27T22:11:48.832Z,5.47
2022-12-27T22:14:20.595Z,6.50
2022-12-27T22:16:51.555Z,5.60
2022-12-27T22:19:19.701Z,5.70
2022-12-27T22:21:47.894Z,5.33
2022-12-27T22:24:19.428Z,5.43
2022-12-27T22:26:50.206Z,5.63
2022-12-27T22:29:18.901Z,5.37
2022-12-27T22:31:47.121Z,5.10
2022-12-27T22:34:15.369Z,6.20
2022-12-27T22:36:43.521Z,5.83
2022-12-27T22:39:11.786Z,5.70
2022-12-27T22:41:39.961Z,6.57
2022-12-27T22:44:13.393Z,7.53
2022-12-27T22:47:25.157Z,6.47
2022-12-27T22:49:32.023Z,6.47
2022-12-27T22:52:00.189Z,5.33
2022-12-27T22:55:05.688Z,6.03
2022-12-27T22:57:16.606Z,5.40
2022-12-27T22:59:46.162Z,5.90
2022-12-27T23:02:14.413Z,6.00
2022-12-27T23:04:42.921Z,4.80
2022-12-27T23:07:11.154Z,4.70
2022-12-27T23:09:43.047Z,5.03
2022-12-27T23:12:12.315Z,4.47
2022-12-27T23:14:41.077Z,4.10
2022-12-27T23:17:10.793Z,4.90
2022-12-27T23:19:38.980Z,4.77
2022-12-27T23:22:07.853Z,4.60
2022-12-27T23:24:36.105Z,4.80
2022-12-27T23:27:04.457Z,4.27
2022-12-27T23:29:32.713Z,4.67
2022-12-27T23:32:01.061Z,4.53
2022-12-27T23:34:30.665Z,6.07
2022-12-27T23:36:58.961Z,4.83
2022-12-27T23:39:27.549Z,5.43
2022-12-27T23:41:55.897Z,5.17
2022-12-27T23:44:34.356Z,5.13
2022-12-27T23:47:05.483Z,4.13
2022-12-27T23:49:35.744Z,5.20
2022-12-27T23:52:04.158Z,5.13
2022-12-27T23:54:32.305Z,5.53
2022-12-27T23:57:19.630Z,4.80
2022-12-27T23:59:49.254Z,4.17
